Latest Weather Observations for Bundaberg

IDQ60801

Issued at 11:12 pm EST Tuesday 7 April 2020 (issued every 10 minutes, with the page automatically refreshed every 10 minutes)

About weather observations | Map of weather stations | Latest weather observations for QLD | Other Formats
Station Details ID: 039128 Name: BUNDABERG AERO Lat: -24.91 Lon: 152.32 Height: 30.82 m
Data from the previous 72 hours. | See also: Recent months at Bundaberg
Date/Time
EST
Temp
°C
App
Temp
°C
Dew
Point
°C
Rel
Hum
%
Delta-T
°C
Wind Press
QNH
hPa
Press
MSL
hPa
Rain since
9am
mm
Dir  Spd
km/h
Gust
km/h
Spd
kts
Gust
kts
07/11:00pm 19.6 19.7 16.4 82 1.9 S 11 15 6 8 1016.2 1016.1 0.0
07/10:30pm 19.8 19.9 16.4 81 2.0 S 11 15 6 8 1016.3 1016.2 0.0
07/10:00pm 20.4 20.2 16.6 79 2.3 S 13 19 7 10 1016.3 1016.2 0.0
07/09:30pm 20.7 20.8 16.5 77 2.5 SSE 11 17 6 9 1016.4 1016.3 0.0
07/09:00pm 20.8 20.9 16.4 76 2.7 SSE 11 13 6 7 1016.4 1016.3 0.0
07/08:30pm 20.9 21.5 16.7 77 2.6 SSE 9 15 5 8 1016.3 1016.2 0.0
07/08:00pm 21.5 21.3 16.7 74 2.9 SSE 13 17 7 9 1016.1 1016.0 0.0
07/07:30pm 22.0 21.4 16.7 72 3.2 SSE 15 19 8 10 1015.7 1015.6 0.0
07/07:00pm 22.0 21.6 16.1 69 3.6 SE 13 17 7 9 1015.3 1015.2 0.0
07/06:30pm 22.9 21.7 16.2 66 4.1 SE 17 20 9 11 1014.7 1014.6 0.0
07/06:00pm 23.6 21.8 15.6 61 4.8 ESE 19 24 10 13 1014.4 1014.3 0.0
07/05:30pm 24.4 22.2 15.9 59 5.2 ESE 22 30 12 16 1014.3 1014.2 0.0
07/05:00pm 25.1 21.1 15.1 53 6.0 ESE 30 43 16 23 1014.0 1013.9 0.0
07/04:30pm 26.0 22.5 15.4 52 6.4 ESE 28 35 15 19 1013.8 1013.7 0.0
07/04:00pm 26.3 22.6 16.0 53 6.3 ESE 30 39 16 21 1013.7 1013.6 0.0
07/03:30pm 26.5 23.6 16.1 52 6.4 ESE 26 32 14 17 1013.5 1013.4 0.0
07/03:00pm 27.2 23.7 15.6 49 7.1 E 28 37 15 20 1013.5 1013.4 0.0
07/02:30pm 27.3 23.3 15.3 48 7.3 ESE 30 39 16 21 1013.6 1013.5 0.0
07/02:00pm 26.9 22.9 15.3 49 7.0 ESE 30 41 16 22 1013.7 1013.6 0.0
07/01:30pm 27.2 24.2 15.9 50 6.9 ESE 26 37 14 20 1014.1 1014.0 0.0
07/01:00pm 27.2 25.2 16.5 52 6.6 ESE 22 26 12 14 1014.5 1014.4 0.0
07/12:30pm 26.1 24.8 17.2 58 5.6 SE 20 28 11 15 1015.0 1014.9 0.0
07/12:00pm 28.0 26.6 16.9 51 6.9 ESE 20 32 11 17 1015.2 1015.1 0.0
07/11:30am 27.2 25.7 16.2 51 6.8 ESE 19 24 10 13 1015.9 1015.8 0.0
07/11:00am 26.4 24.6 15.4 50 6.7 SE 19 26 10 14 1016.5 1016.4 0.0
07/10:30am 26.6 25.1 16.8 55 6.1 SSE 20 32 11 17 1016.7 1016.6 0.0
07/10:00am 25.9 23.5 16.5 56 5.8 SE 24 32 13 17 1016.8 1016.7 0.0
07/09:30am 25.3 23.4 16.7 59 5.3 SSE 22 28 12 15 1016.8 1016.7 0.0
07/09:00am 24.4 24.1 17.4 65 4.4 S 15 20 8 11 1016.8 1016.7 0.0
07/08:30am 23.4 23.3 17.8 71 3.5 S 15 24 8 13 1016.7 1016.6 0.0
07/08:00am 21.8 22.2 17.2 75 2.8 S 11 17 6 9 1016.4 1016.3 0.0
07/07:30am 20.5 20.6 16.5 78 2.4 S 11 19 6 10 1016.1 1016.0 0.0
07/07:00am 19.4 19.5 16.4 83 1.8 S 11 15 6 8 1015.8 1015.7 0.0
07/06:30am 18.0 18.3 16.0 88 1.2 SSW 9 11 5 6 1015.4 1015.3 0.0
07/06:00am 17.8 18.0 15.8 88 1.2 SSW 9 13 5 7 1015.1 1015.0 0.0
07/05:30am 18.0 18.2 15.8 87 1.3 SSW 9 13 5 7 1014.9 1014.8 0.0
07/05:00am 18.1 18.0 15.9 87 1.3 SSW 11 13 6 7 1014.7 1014.6 0.0
07/04:30am 18.2 18.5 16.0 87 1.3 SSW 9 11 5 6 1014.5 1014.4 0.0
07/04:00am 18.4 18.7 16.0 86 1.4 SSW 9 11 5 6 1014.5 1014.4 0.0
07/03:30am 18.4 18.7 16.0 86 1.4 SSW 9 13 5 7 1014.4 1014.3 0.0
07/03:00am 18.6 18.5 16.0 85 1.5 SSW 11 17 6 9 1014.5 1014.4 0.0
07/02:30am 18.7 18.3 16.3 86 1.4 S 13 19 7 10 1014.5 1014.4 0.0
07/02:00am 18.8 18.9 16.4 86 1.4 SSW 11 15 6 8 1014.8 1014.7 0.0
07/01:30am 18.9 19.4 16.5 86 1.4 SSW 9 15 5 8 1014.9 1014.8 0.0
07/01:00am 19.2 19.3 16.6 85 1.6 SSW 11 13 6 7 1015.2 1015.1 0.0
07/12:30am 19.2 19.3 16.6 85 1.6 SSW 11 15 6 8 1015.2 1015.1 0.0
07/12:00am 19.3 19.5 16.7 85 1.6 SSW 11 13 6 7 1015.4 1015.3 0.0
 
Date/Time
EST
Temp
°C
App
Temp
°C
Dew
Point
°C
Rel
Hum
%
Delta-T
°C
Wind Press
QNH
hPa
Press
MSL
hPa
Rain since
9am
mm
Dir  Spd
km/h
Gust
km/h
Spd
kts
Gust
kts
06/11:30pm 19.5 19.7 16.7 84 1.7 S 11 15 6 8 1015.5 1015.4 0.0
06/11:00pm 19.9 20.1 16.7 82 1.9 S 11 15 6 8 1015.6 1015.5 0.0
06/10:30pm 19.9 20.2 17.1 84 1.7 SSW 11 13 6 7 1015.9 1015.8 0.0
06/10:00pm 20.1 20.4 16.9 82 1.9 S 11 13 6 7 1015.9 1015.8 0.0
06/09:30pm 20.5 20.8 16.9 80 2.2 SSW 11 13 6 7 1015.9 1015.8 0.0
06/09:00pm 21.0 21.7 17.0 78 2.4 S 9 13 5 7 1015.9 1015.8 0.0
06/08:30pm 21.4 22.5 17.2 77 2.6 S 7 9 4 5 1015.6 1015.5 0.0
06/08:00pm 22.0 22.6 16.9 73 3.1 SE 9 13 5 7 1015.5 1015.4 0.0
06/07:30pm 22.8 22.9 16.6 68 3.8 ESE 11 17 6 9 1015.1 1015.0 0.0
06/07:00pm 23.1 22.7 16.2 65 4.2 ESE 13 17 7 9 1014.5 1014.4 0.0
06/06:30pm 23.5 23.2 16.5 65 4.3 ESE 13 17 7 9 1014.2 1014.1 0.0
06/06:00pm 24.1 23.4 16.4 62 4.7 ESE 15 19 8 10 1014.0 1013.9 0.0
06/05:30pm 24.7 23.5 16.2 59 5.2 E 17 24 9 13 1013.6 1013.5 0.0
06/05:00pm 25.7 23.4 15.7 54 6.1 E 22 30 12 16 1013.3 1013.2 0.0
06/04:30pm 26.2 23.6 15.9 53 6.3 E 24 30 13 16 1012.9 1012.8 0.0
06/04:00pm 26.8 24.3 15.2 49 7.0 E 22 30 12 16 1012.8 1012.6 0.0
06/03:30pm 27.6 25.6 15.6 48 7.3 E 20 28 11 15 1012.7 1012.5 0.0
06/03:00pm 27.8 26.0 15.5 47 7.5 ESE 19 24 10 13 1012.7 1012.5 0.0
06/02:30pm 28.3 26.8 15.2 44 8.0 E 17 28 9 15 1012.8 1012.6 0.0
06/02:00pm 28.5 26.1 10.2 32 10.3 S 13 19 7 10 1013.2 1013.1 0.0
06/01:30pm 28.5 27.0 12.0 36 9.6 SSW 11 19 6 10 1013.5 1013.4 0.0
06/01:00pm 27.9 26.4 13.1 40 8.7 SSW 13 17 7 9 1014.0 1013.9 0.0
06/12:30pm 27.6 26.9 12.0 38 9.0 S 7 17 4 9 1014.4 1014.3 0.0
06/12:00pm 28.1 27.7 15.1 45 7.9 SSE 11 19 6 10 1014.8 1014.7 0.0
06/11:30am 27.0 26.7 14.4 46 7.6 S 9 19 5 10 1015.3 1015.2 0.0
06/11:00am 26.6 26.0 14.7 48 7.1 SSE 11 22 6 12 1015.8 1015.7 0.0
06/10:30am 26.0 24.2 15.4 52 6.4 SE 19 24 10 13 1016.0 1015.9 0.0
06/10:00am 26.3 24.1 15.0 49 6.8 SSE 20 28 11 15 1016.1 1016.0 0.0
06/09:30am 25.5 23.7 16.1 56 5.8 SSE 20 30 11 16 1016.4 1016.3 0.0
06/09:00am 25.0 25.0 18.2 66 4.3 SSE 15 22 8 12 1016.6 1016.5 0.0
06/08:30am 23.3 23.4 17.5 70 3.6 SSE 13 19 7 10 1016.6 1016.5 0.0
06/08:00am 22.4 22.7 18.0 76 2.7 S 13 17 7 9 1016.4 1016.3 0.0
06/07:30am 21.2 21.5 17.8 81 2.1 S 13 20 7 11 1016.2 1016.1 0.0
06/07:00am 20.4 21.3 17.6 84 1.7 S 9 13 5 7 1015.8 1015.7 0.0
06/06:30am 19.4 19.8 17.2 87 1.3 S 11 15 6 8 1015.5 1015.4 0.0
06/06:00am 19.1 19.4 17.1 88 1.2 SSW 11 15 6 8 1015.1 1015.0 0.0
06/05:30am 19.2 19.6 17.3 89 1.2 S 11 17 6 9 1014.8 1014.7 0.0
06/05:00am 19.4 19.9 17.4 88 1.2 S 11 17 6 9 1014.6 1014.5 0.0
06/04:30am 19.4 20.7 17.5 89 1.2 SSE 7 11 4 6 1014.3 1014.2 0.0
06/04:00am 19.6 20.2 17.7 89 1.2 S 11 17 6 9 1014.1 1014.0 0.0
06/03:30am 19.6 20.3 17.9 90 1.0 S 11 15 6 8 1014.0 1013.9 0.0
06/03:00am 19.9 21.0 18.0 89 1.2 S 9 13 5 7 1013.9 1013.8 0.0
06/02:30am 20.2 21.4 18.3 89 1.2 SSW 9 13 5 7 1014.0 1013.9 0.0
06/02:00am 20.3 21.6 18.4 89 1.2 S 9 13 5 7 1014.1 1014.0 0.0
06/01:30am 20.4 21.7 18.5 89 1.2 SSW 9 13 5 7 1014.1 1014.0 0.0
06/01:00am 20.6 22.0 18.7 89 1.2 SSW 9 13 5 7 1014.3 1014.2 0.0
06/12:30am 20.6 21.6 18.7 89 1.2 S 11 15 6 8 1014.6 1014.5 0.0
06/12:00am 20.9 22.0 18.8 88 1.3 S 11 15 6 8 1014.8 1014.7 0.0
 
Date/Time
EST
Temp
°C
App
Temp
°C
Dew
Point
°C
Rel
Hum
%
Delta-T
°C
Wind Press
QNH
hPa
Press
MSL
hPa
Rain since
9am
mm
Dir  Spd
km/h
Gust
km/h
Spd
kts
Gust
kts
05/11:30pm 21.2 22.3 18.9 87 1.4 SSW 11 13 6 7 1014.9 1014.8 0.0
05/11:00pm 21.5 22.8 19.4 88 1.3 SSW 11 13 6 7 1015.2 1015.1 0.0
05/10:30pm 21.9 23.7 19.5 86 1.5 S 9 11 5 6 1015.3 1015.2 0.0
05/10:00pm 21.9 23.7 19.5 86 1.5 SSW 9 11 5 6 1015.4 1015.3 0.0
05/09:30pm 22.1 23.9 19.5 85 1.7 SSW 9 11 5 6 1015.5 1015.4 0.0
05/09:00pm 22.4 24.4 19.9 86 1.6 S 9 11 5 6 1015.3 1015.2 0.0
05/08:30pm 23.0 25.0 20.0 83 1.9 SSE 9 11 5 6 1015.1 1015.0 0.0
05/08:00pm 23.2 25.0 20.3 84 1.9 SE 11 13 6 7 1014.7 1014.6 0.0
05/07:30pm 23.7 25.9 20.4 82 2.1 ESE 9 11 5 6 1014.3 1014.2 0.0
05/07:00pm 23.6 25.3 20.1 81 2.3 SE 11 13 6 7 1013.8 1013.7 0.0
05/06:30pm 24.4 25.6 19.9 76 2.9 ESE 13 17 7 9 1013.3 1013.2 0.0
05/06:00pm 25.0 26.2 19.8 73 3.4 ESE 13 19 7 10 1012.9 1012.8 0.0
05/05:30pm 25.8 25.6 19.7 69 3.9 ESE 20 26 11 14 1012.4 1012.2 0.0
05/05:00pm 26.6 25.7 19.0 63 4.9 ESE 22 28 12 15 1012.1 1011.9 0.0
05/04:30pm 27.1 25.4 18.1 58 5.7 E 24 32 13 17 1011.7 1011.5 0.0
05/04:00pm 26.9 24.9 18.2 59 5.5 ESE 26 32 14 17 1011.4 1011.2 0.0
05/03:30pm 28.1 26.7 18.8 57 6.0 ESE 24 30 13 16 1011.2 1011.0 0.0
05/03:00pm 28.1 26.8 19.1 58 5.8 E 24 32 13 17 1011.1 1010.9 0.0
05/02:30pm 28.4 27.8 21.2 65 4.8 E 26 33 14 18 1011.2 1011.0 0.0
05/02:00pm 28.6 28.4 20.6 62 5.3 E 22 32 12 17 1011.4 1011.2 0.0
05/01:30pm 28.9 28.4 19.2 55 6.3 E 20 26 11 14 1011.6 1011.4 0.0
05/01:00pm 29.3 29.5 19.3 55 6.5 ESE 17 24 9 13 1012.0 1011.8 0.0
05/12:30pm 28.5 29.5 19.4 57 5.9 S 13 24 7 13 1012.3 1012.1 0.0
05/12:00pm 28.3 29.6 20.1 61 5.4 S 13 20 7 11 1012.7 1012.5 0.0
05/11:30am 27.7 29.1 20.3 64 4.9 S 13 20 7 11 1013.1 1013.0 0.0
05/11:00am 27.1 28.4 20.2 66 4.5 S 13 17 7 9 1013.5 1013.4 0.0
05/10:30am 26.7 28.8 21.0 71 3.8 SSE 11 17 6 9 1013.8 1013.7 0.0
05/10:00am 25.1 26.9 20.4 75 3.1 SSW 11 17 6 9 1014.2 1014.1 0.0
05/09:30am 23.7 25.9 21.2 86 1.6 SW 11 15 6 8 1014.3 1014.2 0.0
05/09:00am 23.2 26.0 21.6 91 1.1 WSW 9 11 5 6 1014.3 1014.2 21.8
05/08:30am 22.7 25.1 21.5 93 0.8 W 11 13 6 7 1014.3 1014.2 21.8
05/08:00am 22.7 25.9 22.4 98 0.2 WSW 9 13 5 7 1014.0 1013.9 21.8
05/07:30am 21.9 25.0 21.4 97 0.3 W 7 11 4 6 1013.6 1013.5 21.8
05/07:00am 21.4 23.7 20.6 95 0.5 W 9 13 5 7 1013.4 1013.3 21.6
05/06:30am 21.2 23.4 20.4 95 0.5 NW 9 11 5 6 1013.1 1013.0 21.6
05/06:00am 21.4 24.0 20.4 94 0.6 NW 7 11 4 6 1012.7 1012.5 21.6
05/05:30am 21.2 23.8 20.0 93 0.8 NE 6 7 3 4 1012.1 1011.9 21.6
05/05:00am 20.6 22.5 18.9 90 1.1 N 7 13 4 7 1011.6 1011.4 21.4
05/04:30am 20.4 20.7 18.0 86 1.5 NNE 13 15 7 8 1010.9 1010.7 21.2
05/04:00am 21.2 22.1 20.0 93 0.8 N 15 17 8 9 1010.4 1010.2 21.0
05/03:37am 21.1 23.0 20.6 97 0.3 NE 11 15 6 8 1010.3 1010.1 21.0
05/03:30am 20.7 21.7 20.2 97 0.3 ENE 15 17 8 9 1010.3 1010.1 21.0
05/03:00am 20.5 22.7 19.3 93 0.8 SSE 6 9 3 5 1011.1 1010.9 16.8
05/02:31am 21.1 20.7 19.0 88 1.3 SW 19 26 10 14 1011.1 1010.9 1.6
05/02:30am 21.1 20.7 19.0 88 1.3 SW 19 26 10 14 1011.1 1010.9 1.2
05/02:00am 23.1 24.7 20.8 87 1.5 SSW 13 19 7 10 1011.1 1010.9 0.0
05/01:30am 23.1 25.9 20.4 85 1.8 NW 6 9 3 5 1010.8 1010.6 0.0
05/01:00am 23.5 25.9 20.8 85 1.8 NNW 9 9 5 5 1010.9 1010.7 0.0
05/12:30am 23.6 26.4 20.9 85 1.8 NNW 7 9 4 5 1011.1 1010.9 0.0
05/12:00am 24.1 26.9 20.8 82 2.2 N 7 9 4 5 1011.2 1011.0 0.0
 
Date/Time
EST
Temp
°C
App
Temp
°C
Dew
Point
°C
Rel
Hum
%
Delta-T
°C
Wind Press
QNH
hPa
Press
MSL
hPa
Rain since
9am
mm
Dir  Spd
km/h
Gust
km/h
Spd
kts
Gust
kts
04/11:30pm 23.8 26.4 20.5 82 2.1 NNW 7 9 4 5 1011.4 1011.2 0.0

Other formats

Comma delimited format used in spreadsheet applications
http://www.bom.gov.au/fwo/IDQ60801/IDQ60801.94387.axf

JavaScript Object Notation format (JSON) in row-major order
http://www.bom.gov.au/fwo/IDQ60801/IDQ60801.94387.json

Data quality

Most of these data are generated automatically and are frequently updated. Quality checks on data are not normally performed. It is possible for incorrect values to appear. Refer to information at About Latest Weather Observations and please check the disclaimer before using these data.